createdAt,value
2018-08-28T00:01:10.381Z,5.60
2018-08-28T00:03:38.690Z,5.60
2018-08-28T00:06:07.018Z,5.17
2018-08-28T00:08:35.294Z,5.20
2018-08-28T00:11:03.578Z,5.33
2018-08-28T00:13:31.916Z,5.60
2018-08-28T00:16:00.302Z,5.20
2018-08-28T00:18:28.660Z,6.03
2018-08-28T00:20:56.925Z,5.40
2018-08-28T00:23:25.217Z,5.27
2018-08-28T00:25:53.490Z,5.30
2018-08-28T00:28:21.733Z,5.77
2018-08-28T00:30:49.991Z,5.57
2018-08-28T00:33:18.222Z,6.17
2018-08-28T00:35:46.513Z,5.17
2018-08-28T00:38:14.785Z,5.40
2018-08-28T00:40:43.128Z,5.83
2018-08-28T00:43:11.379Z,5.73
2018-08-28T00:45:39.711Z,5.90
2018-08-28T00:48:08.028Z,5.90
2018-08-28T00:50:36.273Z,5.53
2018-08-28T00:53:04.652Z,5.90
2018-08-28T00:55:32.901Z,6.83
2018-08-28T00:58:01.199Z,5.73
2018-08-28T01:00:29.582Z,5.87
2018-08-28T01:02:57.834Z,5.63
2018-08-28T01:05:26.082Z,6.23
2018-08-28T01:07:54.722Z,5.53
2018-08-28T01:10:22.999Z,5.97
2018-08-28T01:12:51.262Z,6.40
2018-08-28T01:15:19.527Z,6.30
2018-08-28T01:17:47.772Z,5.47
2018-08-28T01:20:16.029Z,6.40
2018-08-28T01:22:44.307Z,5.77
2018-08-28T01:25:12.564Z,6.07
2018-08-28T01:27:40.841Z,6.03
2018-08-28T01:30:09.133Z,5.90
2018-08-28T01:32:37.400Z,5.80
2018-08-28T01:35:05.774Z,5.80
2018-08-28T01:37:34.069Z,5.67
2018-08-28T01:40:02.348Z,5.60
2018-08-28T01:42:30.726Z,5.97
2018-08-28T01:44:59.005Z,5.70
2018-08-28T01:47:27.310Z,6.37
2018-08-28T01:49:55.644Z,5.50
2018-08-28T01:52:23.918Z,6.37
2018-08-28T01:54:52.203Z,6.50
2018-08-28T01:57:20.489Z,6.67
2018-08-28T01:59:48.838Z,6.17
2018-08-28T02:02:17.235Z,5.47
2018-08-28T02:04:45.503Z,6.27
2018-08-28T02:07:13.891Z,6.60
2018-08-28T02:09:42.166Z,6.70
2018-08-28T02:12:10.458Z,5.47
2018-08-28T02:14:38.797Z,5.87
2018-08-28T02:17:07.101Z,5.60
2018-08-28T02:19:35.346Z,6.40
2018-08-28T02:22:03.655Z,5.93
2018-08-28T02:24:31.901Z,5.87
2018-08-28T02:27:00.219Z,5.73
2018-08-28T02:29:29.502Z,5.93
2018-08-28T02:31:57.783Z,5.80
2018-08-28T02:34:26.030Z,6.23
2018-08-28T02:36:54.349Z,6.17
2018-08-28T02:39:22.604Z,5.93
2018-08-28T02:41:50.878Z,6.53
2018-08-28T02:44:19.282Z,5.37
2018-08-28T02:46:47.566Z,6.47
2018-08-28T02:49:15.909Z,6.20
2018-08-28T02:51:44.155Z,6.43
2018-08-28T02:54:12.434Z,5.47
2018-08-28T02:56:40.689Z,6.47
2018-08-28T02:59:09.000Z,5.60
2018-08-28T03:01:37.262Z,5.70
2018-08-28T03:04:05.535Z,6.17
2018-08-28T03:06:33.929Z,6.50
2018-08-28T03:09:02.212Z,6.27
2018-08-28T03:11:30.531Z,6.03
2018-08-28T03:13:58.819Z,6.10
2018-08-28T03:16:27.100Z,6.03
2018-08-28T03:18:55.371Z,6.40
2018-08-28T03:21:23.614Z,6.13
2018-08-28T03:23:51.876Z,6.37
2018-08-28T03:26:20.126Z,6.40
2018-08-28T03:28:48.435Z,5.90
2018-08-28T03:31:16.742Z,6.13
2018-08-28T03:33:45.050Z,6.07
2018-08-28T03:36:13.415Z,6.00
2018-08-28T03:38:41.807Z,6.00
2018-08-28T03:41:10.045Z,5.93
2018-08-28T03:43:38.351Z,6.10
2018-08-28T03:46:06.590Z,6.23
2018-08-28T03:48:34.895Z,6.10
2018-08-28T03:51:03.152Z,5.87
2018-08-28T03:53:31.428Z,5.97
2018-08-28T03:55:59.733Z,6.00
2018-08-28T03:58:27.999Z,6.40
2018-08-28T04:00:56.292Z,6.50
2018-08-28T04:03:24.609Z,6.87
2018-08-28T04:05:52.913Z,6.70
2018-08-28T04:08:21.184Z,6.63
2018-08-28T04:10:49.444Z,7.27
2018-08-28T04:13:17.719Z,6.80
2018-08-28T04:15:45.970Z,6.63
2018-08-28T04:18:14.263Z,6.70
2018-08-28T04:20:42.547Z,6.63
2018-08-28T04:23:10.814Z,6.97
2018-08-28T04:25:39.103Z,7.83
2018-08-28T04:28:07.389Z,6.97
2018-08-28T04:30:35.758Z,7.50
2018-08-28T04:33:03.999Z,7.47
2018-08-28T04:35:32.251Z,7.23
2018-08-28T04:38:00.509Z,8.07
2018-08-28T04:40:28.830Z,7.17
2018-08-28T04:42:57.110Z,7.13
2018-08-28T04:45:25.350Z,7.20
2018-08-28T04:47:53.766Z,7.63
2018-08-28T04:50:22.114Z,7.80
2018-08-28T04:52:50.374Z,7.37
2018-08-28T04:55:18.665Z,8.00
2018-08-28T04:57:46.962Z,7.90
2018-08-28T05:00:15.202Z,7.77
2018-08-28T05:02:43.461Z,7.63
2018-08-28T05:05:11.810Z,8.33
2018-08-28T05:07:40.077Z,8.73
2018-08-28T05:10:08.365Z,7.70
2018-08-28T05:12:36.626Z,7.70
2018-08-28T05:15:04.878Z,8.27
2018-08-28T05:17:33.210Z,7.50
2018-08-28T05:20:01.547Z,7.63
2018-08-28T05:22:29.815Z,7.47
2018-08-28T05:24:58.121Z,7.23
2018-08-28T05:27:26.527Z,8.07
2018-08-28T05:29:54.904Z,7.40
2018-08-28T05:32:23.376Z,7.80
2018-08-28T05:34:51.638Z,7.57
2018-08-28T05:37:19.903Z,8.30
2018-08-28T05:39:48.286Z,7.40
2018-08-28T05:42:16.579Z,7.47
2018-08-28T05:44:44.865Z,7.70
2018-08-28T05:47:13.125Z,8.00
2018-08-28T05:49:41.509Z,7.20
2018-08-28T05:52:09.899Z,7.00
2018-08-28T05:54:38.283Z,7.40
2018-08-28T05:57:06.719Z,7.90
2018-08-28T05:59:35.003Z,7.73
2018-08-28T06:02:03.317Z,7.20
2018-08-28T06:04:31.581Z,7.17
2018-08-28T06:06:59.854Z,7.47
2018-08-28T06:09:28.110Z,7.53
2018-08-28T06:11:56.425Z,7.57
2018-08-28T06:14:25.686Z,7.27
2018-08-28T06:16:53.988Z,8.33
2018-08-28T06:19:22.299Z,7.47
2018-08-28T06:21:50.526Z,7.37
2018-08-28T06:24:18.835Z,7.20
2018-08-28T06:26:47.083Z,7.43
2018-08-28T06:29:15.392Z,7.33
2018-08-28T06:31:43.677Z,7.47
2018-08-28T06:34:11.979Z,6.83
2018-08-28T06:36:40.324Z,7.70
2018-08-28T06:39:09.247Z,7.33
2018-08-28T06:41:37.616Z,7.40
2018-08-28T06:44:06.031Z,6.97
2018-08-28T06:46:34.354Z,7.53
2018-08-28T06:49:02.619Z,7.47
2018-08-28T06:51:30.938Z,7.30
2018-08-28T06:53:59.291Z,7.77
2018-08-28T06:56:27.579Z,7.27
2018-08-28T06:58:55.949Z,7.57
2018-08-28T07:01:24.182Z,7.20
2018-08-28T07:03:52.577Z,7.10
2018-08-28T07:06:20.882Z,7.00
2018-08-28T07:08:49.162Z,7.33
2018-08-28T07:11:17.435Z,6.97
2018-08-28T07:13:45.678Z,7.03
2018-08-28T07:16:14.094Z,7.40
2018-08-28T07:18:42.426Z,7.03
2018-08-28T07:21:10.643Z,7.77
2018-08-28T07:23:38.940Z,7.37
2018-08-28T07:26:07.240Z,7.07
2018-08-28T07:28:35.493Z,7.20
2018-08-28T07:31:03.769Z,7.40
2018-08-28T07:33:32.062Z,6.77
2018-08-28T07:36:00.343Z,7.07
2018-08-28T07:38:28.625Z,7.13
2018-08-28T07:40:56.923Z,7.67
2018-08-28T07:43:25.193Z,7.10
2018-08-28T07:45:53.489Z,6.77
2018-08-28T07:48:21.863Z,6.57
2018-08-28T07:50:50.065Z,6.73
2018-08-28T07:53:18.351Z,7.00
2018-08-28T07:55:46.607Z,5.93
2018-08-28T07:58:14.898Z,6.70
2018-08-28T08:00:43.238Z,6.17
2018-08-28T08:03:11.623Z,6.50
2018-08-28T08:05:39.910Z,6.57
2018-08-28T08:08:08.239Z,6.93
2018-08-28T08:10:36.669Z,6.20
2018-08-28T08:13:05.053Z,6.40
2018-08-28T08:15:33.340Z,6.30
2018-08-28T08:18:01.602Z,6.23
2018-08-28T08:20:29.934Z,6.70
2018-08-28T08:22:58.214Z,6.40
2018-08-28T08:25:26.487Z,6.20
2018-08-28T08:27:54.826Z,7.30
2018-08-28T08:30:23.052Z,6.73
2018-08-28T08:32:51.722Z,6.70
2018-08-28T08:35:20.094Z,7.07
2018-08-28T08:37:48.390Z,6.80
2018-08-28T08:40:16.657Z,7.23
2018-08-28T08:42:44.902Z,10.40
2018-08-28T08:45:13.191Z,10.53
2018-08-28T08:47:41.472Z,9.70
2018-08-28T08:50:09.902Z,9.33
2018-08-28T08:52:38.169Z,8.23
2018-08-28T08:55:06.428Z,6.90
2018-08-28T08:57:34.727Z,6.93
2018-08-28T09:00:03.082Z,6.47
2018-08-28T09:02:31.479Z,6.07
2018-08-28T09:04:59.855Z,5.97
2018-08-28T09:07:28.139Z,6.30
2018-08-28T09:09:56.430Z,5.73
2018-08-28T09:12:24.742Z,5.00
2018-08-28T09:14:53.003Z,5.20
2018-08-28T09:17:21.342Z,5.13
2018-08-28T09:19:49.653Z,4.70
2018-08-28T09:22:18.002Z,4.77
2018-08-28T09:24:46.382Z,5.33
2018-08-28T09:27:14.635Z,5.70
2018-08-28T09:29:42.911Z,5.43
2018-08-28T09:32:11.320Z,5.67
2018-08-28T09:34:39.638Z,5.80
2018-08-28T09:37:07.973Z,5.70
2018-08-28T09:39:36.267Z,5.97
2018-08-28T09:42:04.574Z,5.83
2018-08-28T09:44:32.916Z,6.03
2018-08-28T09:47:01.396Z,6.67
2018-08-28T09:49:29.679Z,6.10
2018-08-28T09:51:57.952Z,6.20
2018-08-28T09:54:26.247Z,6.10
2018-08-28T09:56:54.816Z,5.10
2018-08-28T09:59:23.123Z,5.70
2018-08-28T10:01:51.468Z,5.40
2018-08-28T10:04:19.749Z,6.13
2018-08-28T10:06:48.043Z,6.17
2018-08-28T10:09:17.650Z,6.35
2018-08-28T10:11:46.010Z,5.28
2018-08-28T10:14:14.302Z,6.10
2018-08-28T10:16:42.565Z,5.70
2018-08-28T10:19:10.948Z,5.60
2018-08-28T10:21:39.431Z,6.17
2018-08-28T10:24:07.835Z,5.80
2018-08-28T10:26:36.133Z,5.10
2018-08-28T10:29:04.454Z,5.07
2018-08-28T10:31:32.763Z,5.33
2018-08-28T10:34:01.082Z,5.27
2018-08-28T10:36:29.393Z,5.03
2018-08-28T10:38:57.692Z,5.80
2018-08-28T10:41:26.020Z,5.67
2018-08-28T10:43:54.290Z,6.70
2018-08-28T10:46:22.695Z,6.20
2018-08-28T10:48:50.999Z,5.43
2018-08-28T10:51:19.292Z,5.83
2018-08-28T10:53:47.961Z,6.40
2018-08-28T10:56:16.357Z,6.67
2018-08-28T10:58:44.761Z,6.20
2018-08-28T11:01:12.990Z,6.10
2018-08-28T11:03:41.535Z,5.73
2018-08-28T11:06:09.801Z,5.70
2018-08-28T11:08:38.136Z,6.33
2018-08-28T11:11:06.455Z,5.70
2018-08-28T11:13:34.757Z,5.90
2018-08-28T11:16:03.086Z,5.60
2018-08-28T11:18:31.453Z,6.10
2018-08-28T11:20:59.958Z,5.87
2018-08-28T11:23:28.232Z,5.97
2018-08-28T11:25:56.510Z,6.07
2018-08-28T11:28:24.779Z,5.20
2018-08-28T11:30:53.057Z,6.00
2018-08-28T11:33:21.333Z,6.03
2018-08-28T11:35:49.697Z,6.67
2018-08-28T11:38:17.965Z,6.07
2018-08-28T11:40:46.334Z,5.43
2018-08-28T11:43:14.610Z,6.10
2018-08-28T11:45:42.916Z,5.70
2018-08-28T11:48:11.162Z,5.57
2018-08-28T11:50:39.490Z,4.87
2018-08-28T11:53:07.806Z,5.50
2018-08-28T11:55:36.086Z,5.50
2018-08-28T11:58:04.735Z,6.03
2018-08-28T12:00:32.998Z,5.43
2018-08-28T12:03:01.284Z,6.00
2018-08-28T12:05:29.733Z,5.63
2018-08-28T12:07:57.941Z,5.97
2018-08-28T12:10:26.226Z,5.50
2018-08-28T12:12:54.521Z,5.30
2018-08-28T12:15:22.803Z,6.13
2018-08-28T12:17:51.088Z,5.17
2018-08-28T12:20:19.424Z,5.93
2018-08-28T12:22:47.699Z,5.97
2018-08-28T12:25:16.055Z,6.23
2018-08-28T12:27:44.353Z,5.70
2018-08-28T12:30:12.663Z,5.33
2018-08-28T12:32:40.924Z,6.33
2018-08-28T12:35:09.227Z,6.20
2018-08-28T12:37:37.560Z,5.70
2018-08-28T12:40:06.062Z,5.37
2018-08-28T12:42:34.421Z,6.07
2018-08-28T12:45:02.726Z,5.90
2018-08-28T12:47:31.284Z,5.40
2018-08-28T12:49:59.577Z,6.10
2018-08-28T12:52:27.829Z,5.43
2018-08-28T12:54:56.344Z,5.53
2018-08-28T12:57:24.836Z,5.83
2018-08-28T12:59:53.127Z,5.90
2018-08-28T13:02:21.585Z,6.00
2018-08-28T13:04:49.781Z,5.20
2018-08-28T13:07:18.159Z,6.20
2018-08-28T13:09:46.400Z,5.17
2018-08-28T13:12:14.650Z,6.40
2018-08-28T13:14:43.015Z,5.30
2018-08-28T13:17:11.183Z,5.20
2018-08-28T13:19:39.647Z,5.57
2018-08-28T13:22:08.093Z,5.77
2018-08-28T13:24:36.613Z,5.23
2018-08-28T13:27:04.931Z,5.60
2018-08-28T13:29:33.443Z,5.60
2018-08-28T13:32:01.923Z,5.70
2018-08-28T13:34:30.227Z,5.40
2018-08-28T13:36:58.686Z,5.17
2018-08-28T13:39:27.052Z,5.33
2018-08-28T13:41:55.318Z,5.53
2018-08-28T13:44:23.603Z,5.63
2018-08-28T13:46:51.925Z,5.93
2018-08-28T13:49:20.199Z,5.70
2018-08-28T13:51:48.548Z,5.67
2018-08-28T13:54:16.830Z,5.30
2018-08-28T13:56:45.104Z,5.60
2018-08-28T13:59:13.394Z,5.27
2018-08-28T14:01:41.640Z,5.83
2018-08-28T14:04:10.093Z,6.37
2018-08-28T14:06:38.418Z,6.03
2018-08-28T14:09:06.754Z,6.03
2018-08-28T14:11:35.197Z,5.23
2018-08-28T14:14:03.576Z,6.13
2018-08-28T14:16:31.833Z,5.23
2018-08-28T14:19:00.123Z,5.20
2018-08-28T14:21:28.351Z,5.70
2018-08-28T14:23:56.614Z,5.70
2018-08-28T14:26:24.943Z,5.20
2018-08-28T14:28:53.546Z,5.20
2018-08-28T14:31:21.761Z,5.17
2018-08-28T14:33:50.046Z,5.70
2018-08-28T14:36:18.347Z,5.20
2018-08-28T14:38:46.653Z,5.07
2018-08-28T14:41:14.897Z,5.23
2018-08-28T14:43:43.154Z,5.27
2018-08-28T14:46:11.472Z,5.23
2018-08-28T14:48:39.735Z,5.40
2018-08-28T14:51:08.434Z,5.10
2018-08-28T14:53:36.714Z,4.97
2018-08-28T14:56:05.044Z,5.47
2018-08-28T14:58:33.295Z,5.30
2018-08-28T15:01:01.872Z,5.60
2018-08-28T15:03:30.185Z,5.60
2018-08-28T15:05:58.609Z,5.37
2018-08-28T15:08:26.888Z,5.17
2018-08-28T15:10:55.186Z,5.00
2018-08-28T15:13:23.447Z,4.87
2018-08-28T15:15:51.721Z,5.57
2018-08-28T15:18:20.019Z,4.90
2018-08-28T15:20:48.359Z,5.27
2018-08-28T15:23:16.661Z,5.23
2018-08-28T15:25:45.036Z,5.20
2018-08-28T15:28:13.301Z,5.23
2018-08-28T15:30:41.692Z,5.53
2018-08-28T15:33:09.983Z,5.07
2018-08-28T15:35:38.565Z,5.60
2018-08-28T15:38:06.864Z,5.30
2018-08-28T15:40:35.140Z,5.50
2018-08-28T15:43:03.524Z,5.40
2018-08-28T15:45:31.769Z,5.77
2018-08-28T15:48:00.060Z,5.70
2018-08-28T15:50:28.375Z,5.20
2018-08-28T15:52:56.645Z,5.63
2018-08-28T15:55:25.099Z,5.87
2018-08-28T15:57:53.362Z,5.83
2018-08-28T16:00:21.706Z,5.70
2018-08-28T16:02:50.021Z,5.17
2018-08-28T16:05:18.339Z,5.30
2018-08-28T16:07:46.632Z,5.27
2018-08-28T16:10:14.912Z,5.07
2018-08-28T16:12:43.181Z,5.13
2018-08-28T16:15:11.507Z,4.93
2018-08-28T16:17:39.773Z,4.77
2018-08-28T16:20:08.162Z,5.07
2018-08-28T16:22:45.384Z,5.60
2018-08-28T16:25:13.707Z,5.10
2018-08-28T16:27:41.985Z,5.23
2018-08-28T16:30:10.308Z,5.23
2018-08-28T16:32:38.701Z,5.13
2018-08-28T16:35:06.996Z,5.07
2018-08-28T16:37:35.317Z,5.43
2018-08-28T16:40:03.764Z,4.87
2018-08-28T16:42:32.084Z,5.10
2018-08-28T16:45:00.763Z,4.80
2018-08-28T16:47:29.078Z,5.73
2018-08-28T16:49:57.361Z,5.07
2018-08-28T16:52:25.634Z,4.87
2018-08-28T16:54:54.010Z,5.67
2018-08-28T16:57:22.297Z,4.80
2018-08-28T16:59:50.598Z,4.67
2018-08-28T17:02:18.927Z,5.00
2018-08-28T17:04:47.202Z,4.70
2018-08-28T17:07:15.634Z,4.90
2018-08-28T17:09:44.298Z,5.00
2018-08-28T17:12:12.614Z,5.00
2018-08-28T17:14:40.883Z,5.00
2018-08-28T17:17:09.170Z,4.93
2018-08-28T17:19:37.446Z,5.10
2018-08-28T17:22:05.968Z,5.20
2018-08-28T17:24:34.245Z,4.83
2018-08-28T17:27:02.609Z,5.13
2018-08-28T17:29:30.974Z,4.93
2018-08-28T17:31:59.271Z,5.20
2018-08-28T17:34:27.643Z,5.37
2018-08-28T17:36:56.069Z,5.40
2018-08-28T17:39:24.279Z,5.80
2018-08-28T17:41:52.580Z,5.03
2018-08-28T17:44:20.950Z,5.00
2018-08-28T17:46:49.312Z,5.43
2018-08-28T17:49:17.797Z,4.93
2018-08-28T17:51:46.809Z,5.57
2018-08-28T17:54:15.240Z,5.70
2018-08-28T17:56:43.581Z,4.50
2018-08-28T17:59:11.862Z,4.80
2018-08-28T18:01:40.146Z,5.20
2018-08-28T18:04:08.620Z,4.87
2018-08-28T18:06:36.877Z,5.47
2018-08-28T18:09:06.123Z,5.10
2018-08-28T18:11:34.613Z,5.83
2018-08-28T18:14:03.004Z,5.27
2018-08-28T18:16:31.398Z,6.63
2018-08-28T18:19:00.135Z,7.10
2018-08-28T18:21:28.403Z,7.03
2018-08-28T18:23:56.983Z,6.33
2018-08-28T18:26:25.250Z,5.50
2018-08-28T18:28:53.554Z,5.47
2018-08-28T18:31:21.797Z,5.40
2018-08-28T18:33:50.097Z,5.30
2018-08-28T18:36:18.350Z,5.57
2018-08-28T18:38:46.651Z,5.27
2018-08-28T18:41:14.987Z,5.13
2018-08-28T18:43:43.221Z,5.73
2018-08-28T18:46:11.556Z,5.90
2018-08-28T18:48:39.852Z,5.63
2018-08-28T18:51:08.239Z,5.17
2018-08-28T18:53:36.498Z,5.60
2018-08-28T18:56:04.858Z,5.20
2018-08-28T18:58:33.068Z,6.00
2018-08-28T19:01:01.334Z,5.13
2018-08-28T19:03:29.703Z,5.43
2018-08-28T19:05:58.248Z,6.00
2018-08-28T19:08:26.632Z,5.63
2018-08-28T19:10:55.061Z,5.33
2018-08-28T19:13:23.559Z,5.57
2018-08-28T19:15:52.157Z,5.57
2018-08-28T19:18:20.626Z,5.80
2018-08-28T19:20:49.047Z,5.27
2018-08-28T19:23:17.421Z,5.07
2018-08-28T19:25:45.721Z,5.40
2018-08-28T19:28:13.994Z,5.80
2018-08-28T19:30:42.328Z,5.37
2018-08-28T19:33:10.706Z,4.97
2018-08-28T19:35:39.001Z,5.77
2018-08-28T19:38:07.873Z,5.77
2018-08-28T19:40:36.255Z,5.43
2018-08-28T19:43:04.792Z,5.87
2018-08-28T19:45:33.053Z,5.83
2018-08-28T19:48:01.686Z,6.27
2018-08-28T19:50:30.008Z,5.97
2018-08-28T19:52:58.338Z,5.43
2018-08-28T19:55:26.643Z,5.50
2018-08-28T19:57:54.942Z,5.77
2018-08-28T20:00:23.255Z,5.50
2018-08-28T20:02:51.541Z,6.00
2018-08-28T20:05:19.810Z,6.30
2018-08-28T20:07:48.059Z,5.90
2018-08-28T20:10:16.390Z,5.60
2018-08-28T20:12:44.946Z,5.83
2018-08-28T20:15:13.403Z,5.47
2018-08-28T20:17:41.679Z,5.87
2018-08-28T20:20:10.310Z,5.30
2018-08-28T20:22:38.558Z,5.87
2018-08-28T20:25:06.918Z,5.60
2018-08-28T20:27:35.231Z,5.90
2018-08-28T20:30:03.620Z,6.00
2018-08-28T20:32:31.881Z,5.50
2018-08-28T20:35:00.417Z,6.07
2018-08-28T20:37:28.886Z,6.13
2018-08-28T20:39:57.051Z,5.33
2018-08-28T20:42:25.308Z,5.57
2018-08-28T20:44:53.724Z,5.30
2018-08-28T20:47:21.993Z,5.43
2018-08-28T20:49:50.619Z,5.60
2018-08-28T20:52:19.240Z,5.13
2018-08-28T20:54:47.657Z,5.47
2018-08-28T20:57:16.341Z,5.77
2018-08-28T20:59:44.695Z,5.47
2018-08-28T21:02:12.973Z,5.40
2018-08-28T21:04:41.324Z,5.40
2018-08-28T21:07:09.654Z,5.23
2018-08-28T21:09:37.949Z,5.07
2018-08-28T21:12:06.585Z,5.63
2018-08-28T21:14:34.877Z,5.90
2018-08-28T21:17:03.447Z,4.93
2018-08-28T21:19:31.715Z,5.17
2018-08-28T21:21:59.993Z,4.90
2018-08-28T21:24:28.417Z,5.50
2018-08-28T21:26:56.898Z,5.10
2018-08-28T21:29:25.291Z,5.50
2018-08-28T21:31:53.506Z,5.13
2018-08-28T21:34:22.009Z,5.47
2018-08-28T21:36:50.332Z,5.70
2018-08-28T21:39:18.601Z,5.30
2018-08-28T21:41:46.878Z,5.07
2018-08-28T21:44:15.142Z,5.73
2018-08-28T21:46:43.533Z,5.23
2018-08-28T21:49:11.920Z,5.50
2018-08-28T21:51:40.207Z,5.80
2018-08-28T21:54:08.574Z,5.80
2018-08-28T21:56:36.850Z,5.30
2018-08-28T21:59:05.987Z,5.70
2018-08-28T22:01:34.325Z,5.97
2018-08-28T22:04:02.586Z,5.43
2018-08-28T22:06:36.445Z,5.53
2018-08-28T22:09:05.601Z,5.87
2018-08-28T22:11:34.275Z,5.90
2018-08-28T22:14:02.542Z,5.47
2018-08-28T22:16:30.866Z,5.43
2018-08-28T22:18:59.326Z,5.67
2018-08-28T22:21:27.682Z,5.50
2018-08-28T22:23:55.970Z,5.80
2018-08-28T22:26:24.258Z,5.90
2018-08-28T22:28:52.519Z,5.70
2018-08-28T22:31:21.838Z,5.60
2018-08-28T22:33:50.098Z,5.80
2018-08-28T22:36:18.357Z,5.50
2018-08-28T22:38:46.643Z,5.83
2018-08-28T22:41:14.948Z,5.50
2018-08-28T22:43:43.176Z,5.87
2018-08-28T22:46:11.496Z,5.77
2018-08-28T22:48:39.786Z,5.80
2018-08-28T22:51:08.071Z,5.83
2018-08-28T22:53:36.338Z,5.03
2018-08-28T22:56:04.599Z,5.53
2018-08-28T22:58:32.878Z,5.77
2018-08-28T23:01:01.150Z,5.17
2018-08-28T23:03:29.457Z,5.47
2018-08-28T23:05:57.787Z,5.13
2018-08-28T23:08:26.068Z,6.10
2018-08-28T23:10:54.362Z,5.67
2018-08-28T23:13:22.628Z,5.80
2018-08-28T23:15:50.939Z,5.30
2018-08-28T23:18:19.235Z,5.27
2018-08-28T23:20:47.524Z,5.50
2018-08-28T23:23:15.774Z,5.43
2018-08-28T23:25:44.060Z,5.63
2018-08-28T23:28:12.372Z,5.50
2018-08-28T23:30:40.658Z,5.50
2018-08-28T23:33:08.902Z,5.43
2018-08-28T23:35:37.189Z,5.73
2018-08-28T23:38:05.734Z,6.00
2018-08-28T23:40:34.038Z,6.20
2018-08-28T23:43:02.316Z,6.20
2018-08-28T23:45:30.694Z,6.60
2018-08-28T23:47:58.930Z,6.20
2018-08-28T23:50:27.192Z,6.00
2018-08-28T23:52:55.437Z,5.70
2018-08-28T23:55:23.722Z,5.67
2018-08-28T23:57:52.008Z,5.83
